createdAt,value
2022-08-26T00:00:38.674Z,26.70
2022-08-26T00:04:06.878Z,32.40
2022-08-26T00:07:34.025Z,22.60
2022-08-26T00:11:01.260Z,32.20
2022-08-26T00:14:30.900Z,27.00
2022-08-26T00:17:59.234Z,26.20
2022-08-26T00:21:26.830Z,30.20
2022-08-26T00:24:54.495Z,27.40
2022-08-26T00:28:21.897Z,20.60
2022-08-26T00:31:51.139Z,41.50
2022-08-26T00:35:19.312Z,27.80
2022-08-26T00:38:46.574Z,24.90
2022-08-26T00:42:14.347Z,22.30
2022-08-26T00:45:46.935Z,27.10
2022-08-26T00:49:18.663Z,22.40
2022-08-26T00:52:48.559Z,46.80
2022-08-26T00:56:24.030Z,19.90
2022-08-26T00:59:58.495Z,18.20
2022-08-26T01:03:28.254Z,18.10
2022-08-26T01:07:20.375Z,24.20
2022-08-26T01:10:48.593Z,44.90
2022-08-26T01:14:21.239Z,24.80
2022-08-26T01:17:52.913Z,20.50
2022-08-26T01:21:28.204Z,37.90
2022-08-26T01:24:57.097Z,50.00
2022-08-26T01:28:29.719Z,21.80
2022-08-26T01:31:59.429Z,59.40
2022-08-26T01:35:27.055Z,18.50
2022-08-26T01:38:54.965Z,42.60
2022-08-26T01:42:23.756Z,21.70
2022-08-26T01:45:57.185Z,31.00
2022-08-26T01:49:26.149Z,26.50
2022-08-26T01:52:55.202Z,36.50
2022-08-26T01:56:23.080Z,31.60
2022-08-26T01:59:51.152Z,36.10
2022-08-26T02:03:22.058Z,23.20
2022-08-26T02:06:51.323Z,21.40
2022-08-26T02:10:19.798Z,27.10
2022-08-26T02:13:51.248Z,18.20
2022-08-26T02:17:19.324Z,21.90
2022-08-26T02:20:51.493Z,23.40
2022-08-26T02:24:21.630Z,19.50
2022-08-26T02:27:49.772Z,16.80
2022-08-26T02:31:17.008Z,28.40
2022-08-26T02:34:44.640Z,27.60
2022-08-26T02:38:12.416Z,21.00
2022-08-26T02:41:45.226Z,24.80
2022-08-26T02:45:13.789Z,19.10
2022-08-26T02:48:47.298Z,20.90
2022-08-26T02:52:17.218Z,22.90
2022-08-26T02:55:46.018Z,26.80
2022-08-26T02:59:15.932Z,25.10
2022-08-26T03:02:43.564Z,21.20
2022-08-26T03:06:11.880Z,22.90
2022-08-26T03:09:38.746Z,23.60
2022-08-26T03:13:07.607Z,27.20
2022-08-26T03:16:37.381Z,23.30
2022-08-26T03:20:08.940Z,27.50
2022-08-26T03:23:43.296Z,25.60
2022-08-26T03:27:10.904Z,31.50
2022-08-26T03:30:45.111Z,26.20
2022-08-26T03:34:13.210Z,26.30
2022-08-26T03:37:41.527Z,28.50
2022-08-26T03:41:11.114Z,38.70
2022-08-26T03:44:41.958Z,24.60
2022-08-26T03:48:09.846Z,24.10
2022-08-26T03:51:38.659Z,29.80
2022-08-26T03:55:07.221Z,27.00
2022-08-26T03:58:35.622Z,22.30
2022-08-26T04:02:02.923Z,25.20
2022-08-26T04:05:36.465Z,24.80
2022-08-26T04:09:08.558Z,30.30
2022-08-26T04:12:38.257Z,26.10
2022-08-26T04:16:06.358Z,29.40
2022-08-26T04:19:33.909Z,25.40
2022-08-26T04:23:01.000Z,28.90
2022-08-26T04:26:28.769Z,26.30
2022-08-26T04:29:56.203Z,27.40
2022-08-26T04:33:32.281Z,28.90
2022-08-26T04:37:02.092Z,28.70
2022-08-26T04:40:29.527Z,30.50
2022-08-26T04:43:57.327Z,27.30
2022-08-26T04:47:30.407Z,29.30
2022-08-26T04:51:00.452Z,30.60
2022-08-26T04:54:27.906Z,26.00
2022-08-26T04:57:56.867Z,25.00
2022-08-26T05:01:29.357Z,27.90
2022-08-26T05:04:57.874Z,35.10
2022-08-26T05:08:26.167Z,27.20
2022-08-26T05:11:55.520Z,27.60
2022-08-26T05:15:23.860Z,28.80
2022-08-26T05:18:55.479Z,22.80
2022-08-26T05:22:23.199Z,21.30
2022-08-26T05:25:55.821Z,23.20
2022-08-26T05:29:26.722Z,23.60
2022-08-26T05:32:55.477Z,21.30
2022-08-26T05:36:24.476Z,23.80
2022-08-26T05:39:54.857Z,25.80
2022-08-26T05:43:29.583Z,20.60
2022-08-26T05:46:58.590Z,21.70
2022-08-26T05:50:28.096Z,18.20
2022-08-26T05:54:05.708Z,27.40
2022-08-26T05:57:40.382Z,23.70
2022-08-26T06:01:16.138Z,21.70
2022-08-26T06:04:44.478Z,22.80
2022-08-26T06:08:15.489Z,23.80
2022-08-26T06:11:47.536Z,20.10
2022-08-26T06:15:15.306Z,22.10
2022-08-26T06:18:44.995Z,21.80
2022-08-26T06:22:25.892Z,24.40
2022-08-26T06:25:53.727Z,18.40
2022-08-26T06:29:24.854Z,20.20
2022-08-26T06:33:02.085Z,22.00
2022-08-26T06:36:33.238Z,17.50
2022-08-26T06:40:02.891Z,17.30
2022-08-26T06:43:33.588Z,18.50
2022-08-26T06:47:01.228Z,16.00
2022-08-26T06:50:28.012Z,14.70
2022-08-26T06:53:57.440Z,16.80
2022-08-26T06:57:25.314Z,11.80
2022-08-26T07:00:52.254Z,15.20
2022-08-26T07:04:22.337Z,14.20
2022-08-26T07:07:54.480Z,13.30
2022-08-26T07:11:22.113Z,13.20
2022-08-26T07:14:52.104Z,12.90
2022-08-26T07:18:22.957Z,14.10
2022-08-26T07:21:50.997Z,11.80
2022-08-26T07:25:19.330Z,11.50
2022-08-26T07:28:47.846Z,10.90
2022-08-26T07:32:17.271Z,13.00
2022-08-26T07:35:46.163Z,13.40
2022-08-26T07:39:13.967Z,10.60
2022-08-26T07:42:40.763Z,10.50
2022-08-26T07:46:16.291Z,8.40
2022-08-26T07:49:43.350Z,12.10
2022-08-26T07:53:11.973Z,9.70
2022-08-26T07:56:41.388Z,10.40
2022-08-26T08:00:14.809Z,12.20
2022-08-26T08:03:43.927Z,9.90
2022-08-26T08:07:13.015Z,7.50
2022-08-26T08:10:48.930Z,11.70
2022-08-26T08:14:22.067Z,13.30
2022-08-26T08:17:51.693Z,11.10
2022-08-26T08:21:24.322Z,11.60
2022-08-26T08:24:55.888Z,9.20
2022-08-26T08:28:22.976Z,14.10
2022-08-26T08:31:56.500Z,11.50
2022-08-26T08:35:26.674Z,10.30
2022-08-26T08:38:53.510Z,11.50
2022-08-26T08:42:45.955Z,12.70
2022-08-26T08:46:19.657Z,12.90
2022-08-26T08:49:55.940Z,18.60
2022-08-26T08:53:31.672Z,15.60
2022-08-26T08:57:07.703Z,13.70
2022-08-26T09:00:48.105Z,10.30
2022-08-26T09:04:51.991Z,10.50
2022-08-26T09:08:24.388Z,8.20
2022-08-26T09:11:52.138Z,12.30
2022-08-26T09:15:24.645Z,9.80
2022-08-26T09:19:05.769Z,12.10
2022-08-26T09:22:35.798Z,9.80
2022-08-26T09:26:06.165Z,12.30
2022-08-26T09:29:46.216Z,10.80
2022-08-26T09:33:28.863Z,11.50
2022-08-26T09:37:04.570Z,11.40
2022-08-26T09:40:37.060Z,8.30
2022-08-26T09:44:17.202Z,13.50
2022-08-26T09:47:56.335Z,11.60
2022-08-26T09:51:33.605Z,10.20
2022-08-26T09:55:13.559Z,18.30
2022-08-26T09:58:43.534Z,20.40
2022-08-26T10:02:28.590Z,17.80
2022-08-26T10:06:05.123Z,12.50
2022-08-26T10:09:37.492Z,12.30
2022-08-26T10:16:48.814Z,21.80
2022-08-26T10:20:25.222Z,11.00
2022-08-26T10:23:56.990Z,10.70
2022-08-26T10:27:35.471Z,13.70
2022-08-26T10:31:06.812Z,12.50
2022-08-26T10:34:35.121Z,12.30
2022-08-26T10:38:11.618Z,10.10
2022-08-26T10:41:45.090Z,14.70
2022-08-26T10:48:48.921Z,7.70
2022-08-26T10:52:23.506Z,18.80
2022-08-26T10:56:15.572Z,11.40
2022-08-26T11:00:01.709Z,11.00
2022-08-26T11:03:40.878Z,13.30
2022-08-26T11:07:46.307Z,14.50
2022-08-26T11:11:13.740Z,12.40
2022-08-26T11:14:53.553Z,12.80
2022-08-26T11:22:12.032Z,13.30
2022-08-26T11:26:35.462Z,15.20
2022-08-26T11:33:54.162Z,8.60
2022-08-26T11:37:23.743Z,9.30
2022-08-26T11:41:20.117Z,10.90
2022-08-26T11:44:49.691Z,13.10
2022-08-26T11:48:21.097Z,12.60
2022-08-26T11:51:48.454Z,16.70
2022-08-26T11:55:19.209Z,15.80
2022-08-26T11:58:48.484Z,11.40
2022-08-26T12:02:19.829Z,11.40
2022-08-26T12:05:50.356Z,10.50
2022-08-26T12:09:24.527Z,12.00
2022-08-26T12:12:59.278Z,8.10
2022-08-26T12:16:28.904Z,10.00
2022-08-26T12:19:57.207Z,14.00
2022-08-26T12:23:37.163Z,13.00
2022-08-26T12:27:19.278Z,15.40
2022-08-26T12:31:02.103Z,7.50
2022-08-26T12:37:58.418Z,9.40
2022-08-26T12:41:49.317Z,13.00
2022-08-26T12:45:36.362Z,11.90
2022-08-26T12:49:54.968Z,8.30
2022-08-26T12:53:50.961Z,15.60
2022-08-26T12:57:18.288Z,11.40
2022-08-26T13:00:47.833Z,8.70
2022-08-26T13:04:36.583Z,11.70
2022-08-26T13:08:26.265Z,8.80
2022-08-26T13:12:02.695Z,8.40
2022-08-26T13:15:29.642Z,8.50
2022-08-26T13:19:04.020Z,19.10
2022-08-26T13:22:31.766Z,8.90
2022-08-26T13:26:00.238Z,16.10
2022-08-26T13:29:26.993Z,7.20
2022-08-26T13:33:02.206Z,9.30
2022-08-26T13:36:32.300Z,6.80
2022-08-26T13:39:59.414Z,9.30
2022-08-26T13:43:28.361Z,7.60
2022-08-26T13:46:57.301Z,7.80
2022-08-26T13:50:26.502Z,12.50
2022-08-26T13:54:00.751Z,9.90
2022-08-26T13:57:29.023Z,8.10
2022-08-26T14:00:59.574Z,8.20
2022-08-26T14:04:27.597Z,9.60
2022-08-26T14:07:59.084Z,9.90
2022-08-26T14:11:27.384Z,10.30
2022-08-26T14:14:55.259Z,8.80
2022-08-26T14:18:30.685Z,12.60
2022-08-26T14:21:59.554Z,9.20
2022-08-26T14:25:30.090Z,10.60
2022-08-26T14:28:57.270Z,10.40
2022-08-26T14:32:28.060Z,8.20
2022-08-26T14:36:18.186Z,11.00
2022-08-26T14:39:45.743Z,5.20
2022-08-26T14:43:14.078Z,10.50
2022-08-26T14:46:46.128Z,10.50
2022-08-26T14:50:16.770Z,8.90
2022-08-26T14:54:04.291Z,13.60
2022-08-26T14:57:32.003Z,11.50
2022-08-26T15:01:00.112Z,6.80
2022-08-26T15:04:34.529Z,7.10
2022-08-26T15:08:02.970Z,10.50
2022-08-26T15:11:30.111Z,10.30
2022-08-26T15:14:58.290Z,13.00
2022-08-26T15:18:26.476Z,9.30
2022-08-26T15:21:55.705Z,11.70
2022-08-26T15:25:25.443Z,10.70
2022-08-26T15:28:56.918Z,10.80
2022-08-26T15:32:27.285Z,9.40
2022-08-26T15:35:58.106Z,9.40
2022-08-26T15:39:27.650Z,11.80
2022-08-26T15:43:11.308Z,11.30
2022-08-26T15:46:43.871Z,7.90
2022-08-26T15:50:12.685Z,10.80
2022-08-26T15:53:41.125Z,16.60
2022-08-26T15:57:11.450Z,10.70
2022-08-26T16:00:46.836Z,13.50
2022-08-26T16:04:17.989Z,8.80
2022-08-26T16:07:45.705Z,7.60
2022-08-26T16:11:13.904Z,8.50
2022-08-26T16:14:42.838Z,10.30
2022-08-26T16:18:11.944Z,13.00
2022-08-26T16:21:42.891Z,14.00
2022-08-26T16:28:40.506Z,15.40
2022-08-26T16:32:12.549Z,7.30
2022-08-26T16:35:44.565Z,12.80
2022-08-26T16:39:16.438Z,8.60
2022-08-26T16:42:45.519Z,10.50
2022-08-26T16:46:14.441Z,7.60
2022-08-26T16:49:47.991Z,7.60
2022-08-26T16:53:16.359Z,11.40
2022-08-26T16:56:44.459Z,11.40
2022-08-26T17:00:17.167Z,11.00
2022-08-26T17:03:45.353Z,18.80
2022-08-26T17:07:12.625Z,13.90
2022-08-26T17:10:40.624Z,8.30
2022-08-26T17:14:15.617Z,8.80
2022-08-26T17:17:45.423Z,11.70
2022-08-26T17:21:14.273Z,18.90
2022-08-26T17:24:47.515Z,13.10
2022-08-26T17:28:16.618Z,12.10
2022-08-26T17:31:46.453Z,17.40
2022-08-26T17:35:21.586Z,18.20
2022-08-26T17:38:49.740Z,13.00
2022-08-26T17:42:20.439Z,11.20
2022-08-26T17:45:53.095Z,12.30
2022-08-26T17:49:20.586Z,15.00
2022-08-26T17:52:49.586Z,14.90
2022-08-26T17:56:19.866Z,14.90
2022-08-26T18:00:00.461Z,10.00
2022-08-26T18:03:34.196Z,15.50
2022-08-26T18:07:02.945Z,15.80
2022-08-26T18:10:31.616Z,10.80
2022-08-26T18:13:59.695Z,9.00
2022-08-26T18:17:29.456Z,11.10
2022-08-26T18:21:01.263Z,12.40
2022-08-26T18:24:30.617Z,7.00
2022-08-26T18:27:58.374Z,11.40
2022-08-26T18:31:31.698Z,8.40
2022-08-26T18:35:01.077Z,11.90
2022-08-26T18:38:32.370Z,10.60
2022-08-26T18:42:00.859Z,11.30
2022-08-26T18:45:34.447Z,10.20
2022-08-26T18:49:04.496Z,11.60
2022-08-26T18:52:34.692Z,14.50
2022-08-26T18:56:02.243Z,16.80
2022-08-26T18:59:29.677Z,16.90
2022-08-26T19:03:01.680Z,9.40
2022-08-26T19:06:33.086Z,8.90
2022-08-26T19:10:05.376Z,9.60
2022-08-26T19:17:02.266Z,10.70
2022-08-26T19:20:32.372Z,9.00
2022-08-26T19:24:03.441Z,13.20
2022-08-26T19:27:31.400Z,11.80
2022-08-26T19:30:59.457Z,10.30
2022-08-26T19:34:29.845Z,18.40
2022-08-26T19:37:57.358Z,7.80
2022-08-26T19:41:34.164Z,18.40
2022-08-26T19:45:18.291Z,14.80
2022-08-26T19:48:57.862Z,13.40
2022-08-26T19:52:29.853Z,11.70
2022-08-26T19:55:58.199Z,17.00
2022-08-26T19:59:29.501Z,17.40
2022-08-26T20:02:56.974Z,20.80
2022-08-26T20:06:24.541Z,19.40
2022-08-26T20:09:52.827Z,13.30
2022-08-26T20:13:22.142Z,18.10
2022-08-26T20:16:50.089Z,13.60
2022-08-26T20:20:39.643Z,12.90
2022-08-26T20:24:13.258Z,12.10
2022-08-26T20:27:42.419Z,17.50
2022-08-26T20:31:12.452Z,15.50
2022-08-26T20:34:43.874Z,12.80
2022-08-26T20:38:12.792Z,17.00
2022-08-26T20:41:45.839Z,13.60
2022-08-26T20:45:16.207Z,18.90
2022-08-26T20:48:48.930Z,18.10
2022-08-26T20:52:16.682Z,15.40
2022-08-26T20:55:51.985Z,8.60
2022-08-26T20:59:21.769Z,14.50
2022-08-26T21:02:53.404Z,10.30
2022-08-26T21:06:24.361Z,16.80
2022-08-26T21:09:59.147Z,11.70
2022-08-26T21:13:30.748Z,14.70
2022-08-26T21:17:05.576Z,16.00
2022-08-26T21:20:35.363Z,12.40
2022-08-26T21:24:03.073Z,15.40
2022-08-26T21:27:30.781Z,11.80
2022-08-26T21:30:59.431Z,11.90
2022-08-26T21:34:27.838Z,15.90
2022-08-26T21:37:55.343Z,13.30
2022-08-26T21:41:23.981Z,14.10
2022-08-26T21:44:55.439Z,11.50
2022-08-26T21:48:24.014Z,12.90
2022-08-26T21:51:59.256Z,14.60
2022-08-26T21:55:26.543Z,15.80
2022-08-26T21:58:55.247Z,13.50
2022-08-26T22:02:25.635Z,16.30
2022-08-26T22:05:52.974Z,17.20
2022-08-26T22:09:23.355Z,15.80
2022-08-26T22:13:00.648Z,15.50
2022-08-26T22:16:36.465Z,16.10
2022-08-26T22:20:05.183Z,13.30
2022-08-26T22:23:39.637Z,19.70
2022-08-26T22:27:07.327Z,14.40
2022-08-26T22:30:35.834Z,16.00
2022-08-26T22:34:03.523Z,12.40
2022-08-26T22:37:31.006Z,16.60
2022-08-26T22:41:00.569Z,17.40
2022-08-26T22:44:29.409Z,11.50
2022-08-26T22:47:59.349Z,15.60
2022-08-26T22:51:26.485Z,20.70
2022-08-26T22:54:55.165Z,13.10
2022-08-26T22:58:30.198Z,19.10
2022-08-26T23:01:58.550Z,17.90
2022-08-26T23:05:30.406Z,14.60
2022-08-26T23:09:12.506Z,12.70
2022-08-26T23:12:40.551Z,13.60
2022-08-26T23:16:11.964Z,17.10
2022-08-26T23:19:43.182Z,17.40
2022-08-26T23:23:11.215Z,19.50
2022-08-26T23:26:42.912Z,17.30
2022-08-26T23:30:14.540Z,14.80
2022-08-26T23:34:00.279Z,15.60
2022-08-26T23:37:29.231Z,15.80
2022-08-26T23:41:01.492Z,12.10
2022-08-26T23:44:30.271Z,16.00
2022-08-26T23:47:58.236Z,19.40
2022-08-26T23:51:57.835Z,15.20
2022-08-26T23:55:26.861Z,15.90
2022-08-26T23:58:54.620Z,13.00
